Time;durP1;ratioP1;P1;durP2;ratioP2;P2;SDS_P1;SDS_P2;PMS_P1;PMS_P2;Temp;Humidity;BMP_temperature;BMP_pressure;BME280_temperature;BME280_humidity;BME280_pressure;Samples;Min_cycle;Max_cycle;Signal;HPM_P1;HPM_P2
2023/10/06 00:00:47;;;;;;;14.95;6.35;;;;;;;18.76;59.31;102075.78;5072918;28;20053;-72
2023/10/06 00:03:15;;;;;;;15.80;6.85;;;;;;;18.73;59.24;102082.03;5055384;28;20486;-71
2023/10/06 00:06:12;;;;;;;16.77;10.18;;;;;;;18.72;59.88;102083.22;5073899;28;20056;-71
2023/10/06 00:08:32;;;;;;;17.20;7.68;;;;;;;18.88;59.26;102083.47;5059014;28;20677;-71
2023/10/06 00:11:10;;;;;;;16.58;7.15;;;;;;;18.77;59.02;102087.78;5053417;28;20049;-70
2023/10/06 00:13:38;;;;;;;18.55;7.13;;;;;;;18.65;60.11;102088.50;5052760;28;20053;-72
2023/10/06 00:16:07;;;;;;;13.82;6.85;;;;;;;18.54;60.24;102086.38;5050835;28;20075;-73
2023/10/06 00:18:38;;;;;;;14.88;6.65;;;;;;;18.55;60.54;102093.63;5059823;28;20059;-71
2023/10/06 00:21:14;;;;;;;12.98;6.78;;;;;;;18.64;60.18;102097.16;5058044;28;20060;-71
2023/10/06 00:23:43;;;;;;;15.35;7.05;;;;;;;18.76;59.63;102094.50;5042161;28;20057;-70
2023/10/06 00:26:16;;;;;;;30.05;18.00;;;;;;;18.72;59.50;102093.53;5036703;28;20056;-71
2023/10/06 00:28:47;;;;;;;15.18;9.43;;;;;;;18.39;59.75;102092.47;5036632;28;20049;-72
2023/10/06 00:31:15;;;;;;;13.50;7.55;;;;;;;18.72;59.47;102096.34;5044713;28;20050;-71
2023/10/06 00:33:44;;;;;;;14.70;7.13;;;;;;;18.68;59.39;102101.78;5073289;28;20048;-72
2023/10/06 00:36:12;;;;;;;14.30;6.50;;;;;;;18.62;59.88;102102.28;5073417;28;20048;-73
2023/10/06 00:39:17;;;;;;;14.25;6.57;;;;;;;18.72;59.37;102097.16;5055284;28;20041;-72
2023/10/06 00:41:35;;;;;;;20.27;7.03;;;;;;;18.56;59.93;102101.66;5052470;28;20431;-72
2023/10/06 00:44:02;;;;;;;15.35;6.88;;;;;;;18.69;59.62;102108.19;5072476;28;20056;-72
2023/10/06 00:46:30;;;;;;;16.55;6.78;;;;;;;18.65;59.59;102096.88;5054664;28;20064;-71
2023/10/06 00:49:04;;;;;;;16.95;6.57;;;;;;;18.54;59.77;102098.38;5064057;28;20596;-71
2023/10/06 00:51:31;;;;;;;14.80;6.93;;;;;;;18.65;59.85;102099.66;5053106;28;20040;-71
2023/10/06 00:53:58;;;;;;;15.75;6.65;;;;;;;18.48;60.58;102096.09;5035584;28;20045;-70
2023/10/06 00:56:28;;;;;;;13.82;6.68;;;;;;;18.28;61.83;102093.97;5035987;28;20045;-72
2023/10/06 00:58:56;;;;;;;12.98;6.40;;;;;;;18.41;61.26;102106.97;5053615;28;20045;-70
2023/10/06 01:01:24;;;;;;;17.35;6.95;;;;;;;18.41;61.55;102096.59;5069100;28;20067;-71
2023/10/06 01:04:00;;;;;;;17.55;6.25;;;;;;;18.38;61.11;102094.44;5072222;28;20052;-71
2023/10/06 01:06:35;;;;;;;15.95;7.13;;;;;;;18.39;61.96;102090.53;5035391;28;20053;-72
2023/10/06 01:09:15;;;;;;;13.95;7.07;;;;;;;18.40;61.79;102089.38;5068244;28;20545;-71
2023/10/06 01:11:47;;;;;;;16.08;7.22;;;;;;;18.24;62.26;102093.81;5072430;28;20048;-71
2023/10/06 01:14:20;;;;;;;14.52;6.75;;;;;;;18.08;62.54;102089.91;5055081;28;20411;-70
2023/10/06 01:16:51;;;;;;;16.23;7.22;;;;;;;18.16;62.87;102089.09;5056267;28;20055;-71
2023/10/06 01:19:28;;;;;;;16.60;7.13;;;;;;;18.16;62.87;102085.47;5072979;28;20418;-71
2023/10/06 01:21:55;;;;;;;15.80;7.32;;;;;;;18.05;63.38;102087.78;5071920;28;20063;-71
2023/10/06 01:24:26;;;;;;;17.25;6.82;;;;;;;18.02;63.32;102074.53;5070714;28;20068;-72
2023/10/06 01:26:59;;;;;;;19.80;7.43;;;;;;;17.90;63.97;102088.31;5036835;28;20132;-71
2023/10/06 01:29:30;;;;;;;16.70;7.20;;;;;;;17.81;64.40;102079.97;5026168;28;20057;-71
2023/10/06 01:32:03;;;;;;;18.02;7.20;;;;;;;17.95;63.61;102074.19;5036900;28;20152;-71
2023/10/06 01:34:38;;;;;;;15.60;7.10;;;;;;;17.85;63.99;102080.91;5070552;28;20052;-71
2023/10/06 01:37:07;;;;;;;13.80;6.43;;;;;;;18.04;63.25;102076.97;5070269;28;20524;-72
2023/10/06 01:39:35;;;;;;;16.83;6.93;;;;;;;18.02;63.15;102076.47;5068809;28;20048;-71
2023/10/06 01:42:07;;;;;;;17.17;6.78;;;;;;;18.31;62.10;102071.00;5054872;28;20067;-71
2023/10/06 01:44:34;;;;;;;15.98;6.60;;;;;;;18.29;62.51;102076.91;5082648;28;20083;-72
2023/10/06 01:47:05;;;;;;;15.40;6.70;;;;;;;18.08;62.65;102075.16;5057857;28;20056;-71
2023/10/06 01:49:33;;;;;;;17.02;6.70;;;;;;;18.16;62.34;102075.16;5073238;28;20071;-71
2023/10/06 01:52:02;;;;;;;15.23;6.72;;;;;;;18.18;62.68;102064.50;5064542;28;20068;-72
2023/10/06 01:54:36;;;;;;;18.63;7.20;;;;;;;18.00;63.08;102057.28;5055670;28;20182;-71
2023/10/06 01:57:06;;;;;;;13.10;6.45;;;;;;;17.94;63.11;102061.38;5038010;28;20052;-72
2023/10/06 01:59:34;;;;;;;14.15;7.35;;;;;;;17.87;63.81;102061.06;5018091;28;20056;-70
2023/10/06 02:02:02;;;;;;;17.42;6.90;;;;;;;17.95;63.50;102055.50;5075733;28;20061;-72
2023/10/06 02:04:44;;;;;;;16.50;6.78;;;;;;;17.90;63.76;102057.66;5075732;28;20067;-71
2023/10/06 02:07:12;;;;;;;18.05;7.35;;;;;;;17.79;63.60;102059.97;5061449;28;20078;-71
2023/10/06 02:09:39;;;;;;;12.20;5.95;;;;;;;17.61;64.38;102060.28;5073389;28;20055;-70
2023/10/06 02:12:07;;;;;;;17.05;7.10;;;;;;;17.68;64.73;102055.03;5076110;28;20045;-71
2023/10/06 02:14:35;;;;;;;13.70;6.28;;;;;;;17.83;63.88;102054.53;5058035;28;20055;-71
2023/10/06 02:17:06;;;;;;;13.27;6.47;;;;;;;17.88;64.16;102060.78;5037001;28;20049;-70
2023/10/06 02:19:37;;;;;;;13.73;5.78;;;;;;;18.01;63.64;102061.72;5041996;28;20051;-71
2023/10/06 02:22:06;;;;;;;12.63;6.55;;;;;;;18.06;63.37;102063.53;5056558;28;20698;-71
2023/10/06 02:24:34;;;;;;;17.85;7.30;;;;;;;17.92;63.57;102053.38;5052519;28;20053;-71
2023/10/06 02:27:01;;;;;;;15.20;7.57;;;;;;;17.87;63.79;102056.31;5075663;28;20052;-73
2023/10/06 02:29:29;;;;;;;12.60;6.30;;;;;;;17.86;63.52;102059.44;5057191;28;20044;-71
2023/10/06 02:32:06;;;;;;;15.13;6.97;;;;;;;17.79;63.85;102051.59;5038372;28;20049;-72
2023/10/06 02:34:35;;;;;;;14.38;6.40;;;;;;;17.89;63.85;102040.09;5071911;28;20483;-71
2023/10/06 02:37:04;;;;;;;13.63;5.90;;;;;;;17.83;63.93;102047.00;5070270;28;20051;-72
2023/10/06 02:39:37;;;;;;;16.20;6.57;;;;;;;17.95;63.42;102049.09;5037295;28;20072;-71
2023/10/06 02:42:09;;;;;;;14.40;6.13;;;;;;;17.87;63.49;102047.97;5075247;28;20488;-71
2023/10/06 02:44:38;;;;;;;13.18;6.35;;;;;;;17.88;63.10;102057.97;5035631;28;20060;-72
2023/10/06 02:47:09;;;;;;;13.02;6.13;;;;;;;17.87;63.23;102061.06;5060169;28;20053;-70
2023/10/06 02:49:40;;;;;;;12.27;6.03;;;;;;;17.80;63.37;102053.22;5050330;28;20542;-72
2023/10/06 02:52:22;;;;;;;17.30;6.97;;;;;;;17.89;63.19;102050.41;5056934;28;20044;-71
2023/10/06 02:57:39;;;;;;;14.07;6.28;;;;;;;17.97;62.56;102050.41;5049132;28;20049;-70
2023/10/06 03:02:55;;;;;;;14.15;6.30;;;;;;;17.81;63.22;102042.91;5052920;28;20060;-71
2023/10/06 03:05:31;;;;;;;13.27;6.38;;;;;;;17.75;63.51;102047.00;5072898;28;20055;-71
2023/10/06 03:08:08;;;;;;;11.82;5.80;;;;;;;17.74;63.75;102053.72;5046174;28;20048;-73
2023/10/06 03:10:45;;;;;;;14.85;7.15;;;;;;;17.63;64.28;102052.41;5039568;28;20060;-72
2023/10/06 03:13:16;;;;;;;15.70;6.85;;;;;;;17.56;64.45;102049.28;5048175;28;20048;-71
2023/10/06 03:15:46;;;;;;;12.63;6.03;;;;;;;17.57;64.86;102056.53;5035926;28;20052;-71
2023/10/06 03:18:16;;;;;;;13.00;6.20;;;;;;;17.60;64.86;102058.66;5032267;28;20044;-71
2023/10/06 03:20:47;;;;;;;12.68;5.88;;;;;;;17.48;65.07;102056.53;5072017;28;20040;-70
2023/10/06 03:23:26;;;;;;;14.52;6.25;;;;;;;17.49;65.30;102060.09;5074318;28;20052;-71
2023/10/06 03:25:56;;;;;;;13.80;6.50;;;;;;;17.51;65.37;102057.81;5048012;28;20514;-71
2023/10/06 03:28:32;;;;;;;14.45;6.18;;;;;;;17.50;65.24;102061.75;5056355;28;20048;-69
2023/10/06 03:31:34;;;;;;;13.88;6.68;;;;;;;17.65;64.87;102052.91;5046829;28;20496;-71
2023/10/06 03:33:55;;;;;;;10.65;5.85;;;;;;;17.43;64.85;102056.66;5054565;28;20057;-70
2023/10/06 03:36:37;;;;;;;17.63;6.60;;;;;;;17.36;65.49;102055.50;5051557;28;20079;-72
2023/10/06 03:39:10;;;;;;;11.85;5.20;;;;;;;17.29;65.89;102060.72;5042758;28;20053;-73
2023/10/06 03:41:44;;;;;;;12.13;5.95;;;;;;;17.22;65.77;102058.44;5086115;28;20064;-71
2023/10/06 03:44:12;;;;;;;12.30;6.03;;;;;;;17.12;66.28;102060.72;5052037;28;20059;-70
2023/10/06 03:46:40;;;;;;;15.65;6.30;;;;;;;17.39;65.35;102054.84;5034086;28;20049;-71
2023/10/06 03:49:07;;;;;;;15.13;6.10;;;;;;;17.50;64.93;102054.25;5063639;28;20503;-71
2023/10/06 03:51:38;;;;;;;12.35;5.72;;;;;;;17.52;64.52;102051.13;5073629;28;20044;-71
2023/10/06 03:54:07;;;;;;;15.00;6.25;;;;;;;17.28;65.35;102047.94;5073834;28;20052;-70
2023/10/06 03:56:35;;;;;;;13.90;6.00;;;;;;;17.35;65.07;102053.84;5035604;28;20069;-70
2023/10/06 03:59:12;;;;;;;14.25;6.00;;;;;;;17.40;64.86;102056.50;5054016;28;20112;-70
2023/10/06 04:01:44;;;;;;;13.25;6.57;;;;;;;17.46;64.34;102058.81;5051250;28;20056;-71
2023/10/06 04:04:15;;;;;;;15.73;6.60;;;;;;;17.44;64.43;102054.66;5055729;28;20059;-70
2023/10/06 04:06:43;;;;;;;14.95;6.22;;;;;;;17.26;65.21;102047.47;5069999;28;20064;-71
2023/10/06 04:09:11;;;;;;;19.38;6.85;;;;;;;17.18;65.28;102057.44;5059218;28;20049;-70
2023/10/06 04:11:42;;;;;;;17.13;6.85;;;;;;;17.42;64.70;102057.78;5059098;28;20053;-71
2023/10/06 04:14:09;;;;;;;16.05;6.65;;;;;;;17.04;66.09;102055.94;5061718;28;20083;-71
2023/10/06 04:16:45;;;;;;;13.15;6.55;;;;;;;17.20;65.60;102057.94;5054380;28;20060;-71
2023/10/06 04:19:16;;;;;;;14.90;6.75;;;;;;;17.32;65.37;102060.91;5054700;28;20503;-72
2023/10/06 04:21:43;;;;;;;17.63;6.38;;;;;;;17.32;65.24;102051.72;5053982;28;20400;-71
2023/10/06 04:24:12;;;;;;;15.48;6.43;;;;;;;17.35;65.35;102062.19;5054661;28;20048;-71
2023/10/06 04:26:39;;;;;;;17.80;7.20;;;;;;;16.99;65.82;102058.88;5072827;28;20060;-71
2023/10/06 04:29:08;;;;;;;16.23;6.95;;;;;;;17.25;65.83;102062.53;5073050;28;20048;-71
2023/10/06 04:31:37;;;;;;;12.88;6.22;;;;;;;17.19;65.82;102058.28;5055352;28;20056;-71
2023/10/06 04:34:04;;;;;;;18.35;7.00;;;;;;;17.48;64.78;102056.53;5053195;28;20480;-71
2023/10/06 04:36:32;;;;;;;14.60;7.18;;;;;;;17.45;64.64;102054.34;5054643;28;20071;-72
2023/10/06 04:38:59;;;;;;;17.30;7.28;;;;;;;17.47;64.69;102057.66;5048798;28;20056;-71
2023/10/06 04:41:26;;;;;;;14.35;6.57;;;;;;;17.50;64.11;102045.06;5054768;28;20056;-70
2023/10/06 04:43:53;;;;;;;14.98;6.90;;;;;;;17.51;64.13;102055.88;5056783;28;20156;-71
2023/10/06 04:46:21;;;;;;;16.13;6.47;;;;;;;17.49;64.39;102058.16;5050995;28;20064;-71
2023/10/06 04:48:48;;;;;;;16.48;7.45;;;;;;;17.30;65.05;102057.63;5042370;28;20071;-72
2023/10/06 04:51:16;;;;;;;15.85;6.95;;;;;;;17.31;64.82;102062.03;5054426;28;20044;-70
2023/10/06 04:53:45;;;;;;;12.35;6.43;;;;;;;17.09;65.28;102067.75;5068284;28;20488;-70
2023/10/06 04:56:14;;;;;;;14.00;7.35;;;;;;;17.19;65.10;102061.06;5060968;28;20049;-69
2023/10/06 04:58:42;;;;;;;14.70;6.57;;;;;;;17.36;64.36;102058.28;5066749;28;20053;-70
2023/10/06 05:01:11;;;;;;;13.15;6.85;;;;;;;17.30;64.38;102060.41;5066298;28;20062;-70
2023/10/06 05:03:42;;;;;;;13.37;6.77;;;;;;;17.33;64.47;102051.38;5070684;28;20061;-71
2023/10/06 05:06:17;;;;;;;14.15;6.85;;;;;;;17.47;63.80;102046.50;5072467;28;20060;-70
2023/10/06 05:08:49;;;;;;;13.95;6.95;;;;;;;17.46;63.66;102058.81;5034008;28;20049;-70
2023/10/06 05:11:18;;;;;;;15.90;6.80;;;;;;;17.43;63.65;102045.53;5067021;28;20049;-70
2023/10/06 05:13:49;;;;;;;17.70;7.63;;;;;;;17.35;64.17;102051.88;5073621;28;20048;-70
2023/10/06 05:16:18;;;;;;;17.52;6.63;;;;;;;17.34;63.89;102055.00;5031441;28;20052;-71
2023/10/06 05:18:47;;;;;;;15.87;6.70;;;;;;;17.28;64.21;102045.97;5057912;28;20044;-71
2023/10/06 05:21:15;;;;;;;13.25;5.95;;;;;;;17.37;64.13;102052.38;5076123;28;20056;-72
2023/10/06 05:23:45;;;;;;;17.25;7.13;;;;;;;17.44;63.47;102052.72;5071836;28;20411;-71
2023/10/06 05:26:14;;;;;;;17.67;6.60;;;;;;;17.40;63.93;102048.94;5070635;28;20063;-64
2023/10/06 05:28:42;;;;;;;16.10;7.07;;;;;;;17.45;63.77;102048.78;5071157;28;20057;-63
2023/10/06 05:31:10;;;;;;;13.43;6.65;;;;;;;17.21;64.23;102055.97;5061458;28;20057;-63
2023/10/06 05:33:40;;;;;;;15.70;6.68;;;;;;;17.19;64.58;102047.94;5056857;28;20059;-63
2023/10/06 05:36:09;;;;;;;14.55;6.10;;;;;;;17.12;65.02;102055.94;5075863;28;20503;-64
2023/10/06 05:38:37;;;;;;;13.95;6.85;;;;;;;17.07;65.05;102050.53;5065522;28;20049;-63
2023/10/06 05:41:11;;;;;;;18.42;7.45;;;;;;;17.33;64.26;102045.81;5059219;28;20049;-63
2023/10/06 05:43:40;;;;;;;15.45;6.47;;;;;;;17.32;64.14;102040.56;5039091;28;20468;-63
2023/10/06 05:46:09;;;;;;;19.48;6.75;;;;;;;17.35;64.10;102054.66;5036770;28;20060;-63
2023/10/06 05:48:36;;;;;;;13.55;6.38;;;;;;;17.25;64.35;102043.84;5060756;28;20056;-65
2023/10/06 05:51:08;;;;;;;16.25;6.15;;;;;;;17.09;64.69;102047.41;5063382;28;20049;-63
2023/10/06 05:53:42;;;;;;;16.90;7.18;;;;;;;16.95;65.69;102047.56;5079937;28;20059;-64
2023/10/06 05:56:10;;;;;;;15.57;6.15;;;;;;;16.97;65.25;102052.81;5074692;28;20043;-62
2023/10/06 05:58:38;;;;;;;16.65;7.18;;;;;;;17.07;65.06;102053.31;5070570;28;20052;-63
2023/10/06 06:01:06;;;;;;;12.07;6.30;;;;;;;17.08;65.14;102057.75;5058329;28;20037;-63
2023/10/06 06:03:33;;;;;;;16.75;6.63;;;;;;;17.16;64.65;102054.16;5060571;28;20044;-64
2023/10/06 06:06:08;;;;;;;18.20;7.07;;;;;;;17.05;64.88;102055.59;5055256;28;20607;-64
2023/10/06 06:08:38;;;;;;;15.18;6.60;;;;;;;17.05;64.90;102055.59;5056389;28;20060;-63
2023/10/06 06:11:06;;;;;;;13.52;6.93;;;;;;;17.08;64.90;102054.97;5056587;28;20578;-64
2023/10/06 06:13:36;;;;;;;19.58;9.90;;;;;;;17.29;64.32;102058.78;5056749;28;20551;-64
2023/10/06 06:16:05;;;;;;;;;;;;;;;17.15;64.47;102062.84;5074881;28;20139;-64
2023/10/06 06:18:33;;;;;;;20.13;10.98;;;;;;;17.33;64.80;102070.09;5059644;28;19935;-61
2023/10/06 06:21:03;;;;;;;19.75;9.32;;;;;;;17.26;71.04;102062.19;5070081;28;20053;-62
2023/10/06 06:23:35;;;;;;;21.30;7.97;;;;;;;17.18;73.45;102076.09;5062813;28;20041;-64
2023/10/06 06:26:02;;;;;;;19.25;7.05;;;;;;;17.22;75.59;102077.09;5056529;28;20045;-63
2023/10/06 06:28:29;;;;;;;22.08;7.80;;;;;;;17.44;75.22;102080.56;5067841;28;20052;-64
2023/10/06 06:31:03;;;;;;;31.73;18.52;;;;;;;17.31;74.29;102084.31;5053186;28;20041;-64
2023/10/06 06:33:32;;;;;;;27.92;10.98;;;;;;;17.44;71.46;102075.00;5069734;28;20056;-63
2023/10/06 06:36:00;;;;;;;20.17;8.75;;;;;;;17.19;70.39;102075.78;5069216;28;20049;-64
2023/10/06 06:38:28;;;;;;;21.88;7.57;;;;;;;17.31;70.29;102086.31;5065081;28;20048;-64
2023/10/06 06:40:59;;;;;;;21.13;7.45;;;;;;;17.13;70.15;102081.84;5070111;28;20059;-62
2023/10/06 06:43:26;;;;;;;24.35;8.30;;;;;;;17.16;69.97;102083.97;5045769;28;20045;-63
2023/10/06 06:45:54;;;;;;;20.23;7.20;;;;;;;17.23;69.62;102084.31;5044864;28;20056;-64
2023/10/06 06:48:21;;;;;;;19.02;9.77;;;;;;;17.49;68.10;102087.97;5053430;28;20060;-64
2023/10/06 06:50:48;;;;;;;25.02;9.98;;;;;;;17.44;68.10;102094.50;5052217;28;20717;-64
2023/10/06 06:53:18;;;;;;;18.88;9.18;;;;;;;17.54;68.08;102090.63;5047457;28;20049;-64
2023/10/06 06:55:46;;;;;;;;;;;;;;;17.24;68.30;102089.56;5049333;28;20049;-63
2023/10/06 06:58:16;;;;;;;22.05;7.63;;;;;;;17.31;67.76;102086.31;5048067;28;19929;-63
2023/10/06 07:00:47;;;;;;;25.23;7.15;;;;;;;17.34;68.11;102086.47;5044366;28;20046;-63
2023/10/06 07:03:15;;;;;;;20.30;7.97;;;;;;;17.44;68.62;102080.56;5032084;28;20057;-63
2023/10/06 07:05:43;;;;;;;16.20;6.80;;;;;;;17.41;68.05;102074.84;5046698;28;20060;-64
2023/10/06 07:08:11;;;;;;;25.85;7.90;;;;;;;17.30;67.53;102079.91;5050851;28;20147;-63
2023/10/06 07:10:46;;;;;;;16.88;7.03;;;;;;;17.45;68.45;102081.41;5050629;28;20044;-61
2023/10/06 07:13:14;;;;;;;19.55;7.22;;;;;;;17.54;69.04;102074.69;5043438;28;20419;-61
2023/10/06 07:15:41;;;;;;;23.92;7.20;;;;;;;17.54;71.87;102085.06;5051951;28;20037;-59
2023/10/06 07:18:12;;;;;;;23.17;7.80;;;;;;;17.45;71.24;102092.53;5051724;28;20056;-61
2023/10/06 07:20:39;;;;;;;26.52;7.90;;;;;;;17.47;70.16;102096.66;5050897;28;20049;-61
2023/10/06 07:23:06;;;;;;;23.17;7.68;;;;;;;17.45;69.04;102090.56;5049246;28;20047;-62
2023/10/06 07:25:34;;;;;;;23.85;7.63;;;;;;;17.31;68.60;102092.66;5046782;28;20053;-61
2023/10/06 07:28:01;;;;;;;19.30;7.35;;;;;;;17.27;67.60;102096.44;5042404;28;20555;-61
2023/10/06 07:30:29;;;;;;;18.88;7.05;;;;;;;17.34;67.77;102103.19;5047666;28;20052;-61
2023/10/06 07:32:56;;;;;;;23.15;8.23;;;;;;;17.30;66.76;102098.56;5051054;28;20256;-62
2023/10/06 07:35:31;;;;;;;21.00;7.50;;;;;;;17.16;67.17;102100.66;5050454;28;20045;-66
2023/10/06 07:37:58;;;;;;;17.88;8.07;;;;;;;17.07;67.90;102097.84;5057605;28;20052;-61
2023/10/06 07:40:27;;;;;;;27.42;8.65;;;;;;;16.42;67.53;102108.06;5053378;28;20041;-62
2023/10/06 07:42:55;;;;;;;21.50;7.80;;;;;;;16.64;65.62;102110.81;5077938;28;20044;-61
2023/10/06 07:45:23;;;;;;;26.48;8.25;;;;;;;16.14;66.85;102112.13;5068445;28;20051;-60
2023/10/06 07:47:51;;;;;;;24.15;7.90;;;;;;;15.60;68.75;102116.75;5078779;28;20045;-62
2023/10/06 07:50:19;;;;;;;23.70;8.25;;;;;;;15.88;71.08;102113.91;5035639;28;20056;-60
2023/10/06 07:52:46;;;;;;;24.15;8.55;;;;;;;16.47;69.66;102110.72;5061525;28;20412;-61
2023/10/06 07:55:15;;;;;;;19.88;7.25;;;;;;;16.98;67.31;102113.72;5059130;28;20057;-62
2023/10/06 07:57:47;;;;;;;25.90;8.35;;;;;;;17.14;66.43;102116.91;5068018;28;20049;-62
2023/10/06 08:00:30;;;;;;;22.15;7.78;;;;;;;17.25;65.30;102116.25;5063893;28;20048;-62
2023/10/06 08:02:59;;;;;;;24.08;7.95;;;;;;;17.36;64.96;102122.34;5031731;28;20051;-61
2023/10/06 08:05:27;;;;;;;21.13;7.82;;;;;;;17.52;64.01;102123.56;5064991;28;20408;-61
2023/10/06 08:07:58;;;;;;;24.70;8.35;;;;;;;17.40;64.20;102123.34;5060704;28;20063;-63
2023/10/06 08:10:29;;;;;;;19.35;8.25;;;;;;;17.32;64.62;102133.31;5060524;28;20546;-61
2023/10/06 08:13:00;;;;;;;21.63;8.00;;;;;;;17.20;64.51;102130.34;5063768;28;20068;-60
2023/10/06 08:15:28;;;;;;;24.80;8.82;;;;;;;17.28;64.99;102131.47;5037672;28;20060;-62
2023/10/06 08:17:55;;;;;;;21.70;8.98;;;;;;;17.05;64.67;102133.56;5076153;28;20048;-61
2023/10/06 08:20:24;;;;;;;22.98;9.32;;;;;;;17.22;65.24;102135.59;5059475;28;20056;-60
2023/10/06 08:22:53;;;;;;;25.33;8.95;;;;;;;16.80;65.96;102135.13;5062856;28;20668;-61
2023/10/06 08:25:23;;;;;;;28.23;8.70;;;;;;;17.30;65.04;102141.16;5066273;28;20071;-61
2023/10/06 08:27:51;;;;;;;;;;;;;;;17.35;64.89;102143.81;5066029;28;20040;-62
2023/10/06 08:30:19;;;;;;;19.67;8.43;;;;;;;17.53;64.04;102150.25;5062966;28;19928;-61
2023/10/06 08:32:49;;;;;;;24.38;9.00;;;;;;;17.65;63.65;102139.28;5043474;28;20040;-61
2023/10/06 08:35:16;;;;;;;22.07;8.23;;;;;;;17.85;62.80;102136.66;5069050;28;20048;-61
2023/10/06 08:37:45;;;;;;;24.52;9.60;;;;;;;18.08;62.26;102134.53;5065247;28;20056;-61
2023/10/06 08:40:16;;;;;;;17.73;8.73;;;;;;;17.91;62.68;102135.38;5050068;28;20063;-61
2023/10/06 08:42:54;;;;;;;23.23;8.82;;;;;;;18.24;61.80;102132.88;5049001;28;20060;-61
2023/10/06 08:45:24;;;;;;;20.40;8.43;;;;;;;18.13;62.16;102139.13;5070042;28;20056;-62
2023/10/06 08:47:59;;;;;;;19.23;8.98;;;;;;;18.25;62.15;102139.28;5042246;28;20044;-61
2023/10/06 08:50:32;;;;;;;21.92;8.80;;;;;;;18.34;61.86;102140.88;5077240;28;20480;-62
2023/10/06 08:53:09;;;;;;;18.67;8.48;;;;;;;18.28;61.97;102144.19;5060616;28;20047;-61
2023/10/06 08:55:38;;;;;;;19.83;8.40;;;;;;;18.24;62.07;102141.25;5075883;28;20055;-62
2023/10/06 08:58:08;;;;;;;21.25;8.80;;;;;;;18.53;61.35;102146.16;5078649;28;20046;-64
2023/10/06 09:00:37;;;;;;;26.55;9.80;;;;;;;18.41;61.47;102146.00;5078001;28;20048;-62
2023/10/06 09:03:11;;;;;;;19.15;8.93;;;;;;;18.51;61.34;102145.66;5078152;28;20060;-61
2023/10/06 09:05:39;;;;;;;32.97;10.10;;;;;;;18.61;60.71;102145.28;5078373;28;20518;-61
2023/10/06 09:08:09;;;;;;;25.13;9.02;;;;;;;18.58;60.79;102140.38;5076998;28;20451;-61
2023/10/06 09:10:41;;;;;;;21.52;8.38;;;;;;;18.56;60.90;102148.28;5077484;28;20056;-62
2023/10/06 09:13:15;;;;;;;24.20;8.32;;;;;;;18.75;60.40;102146.75;5078242;28;20051;-61
2023/10/06 09:15:54;;;;;;;21.70;8.85;;;;;;;18.76;60.21;102141.94;5075033;28;20052;-63
2023/10/06 09:18:27;;;;;;;26.02;9.35;;;;;;;19.00;59.61;102133.81;5053733;28;20060;-62
2023/10/06 09:21:10;;;;;;;22.25;9.00;;;;;;;18.97;59.57;102140.06;5089111;28;20138;-63
2023/10/06 09:23:40;;;;;;;21.60;8.27;;;;;;;19.12;59.90;102141.47;5075658;28;20058;-62
2023/10/06 09:26:15;;;;;;;24.92;8.98;;;;;;;19.03;59.68;102141.53;5074852;28;20064;-62
2023/10/06 09:28:51;;;;;;;34.00;13.13;;;;;;;19.07;59.67;102153.66;5077103;28;20511;-62
2023/10/06 09:31:35;;;;;;;24.88;9.57;;;;;;;19.08;59.97;102146.91;5076407;28;20060;-66
2023/10/06 09:34:07;;;;;;;29.30;10.13;;;;;;;19.29;58.99;102146.97;5078011;28;20052;-67
2023/10/06 09:36:36;;;;;;;46.22;21.17;;;;;;;19.12;59.36;102145.09;5075347;28;20053;-62
2023/10/06 09:39:29;;;;;;;28.95;10.27;;;;;;;19.16;59.20;102140.47;5074207;28;20047;-62
2023/10/06 09:41:57;;;;;;;23.73;9.50;;;;;;;19.34;59.03;102141.22;5054653;28;20061;-64
2023/10/06 09:44:26;;;;;;;27.88;9.23;;;;;;;19.37;58.20;102144.16;5054798;28;20045;-62
2023/10/06 09:46:57;;;;;;;19.42;9.32;;;;;;;19.33;58.17;102134.00;5054074;28;20045;-62
2023/10/06 09:49:24;;;;;;;;;;;;;;;19.33;58.31;102137.63;5052707;28;20057;-62
2023/10/06 09:51:52;;;;;;;23.45;9.15;;;;;;;19.36;58.73;102134.13;5039854;28;19940;-63
2023/10/06 09:54:20;;;;;;;20.95;7.80;;;;;;;19.64;57.61;102134.44;5055734;28;20054;-62
2023/10/06 09:56:48;;;;;;;19.98;9.32;;;;;;;19.58;57.74;102131.03;5020790;28;20056;-63
2023/10/06 09:59:16;;;;;;;20.75;8.23;;;;;;;19.46;56.99;102130.94;5052976;28;20048;-63
2023/10/06 10:01:47;;;;;;;17.75;8.52;;;;;;;19.30;57.72;102127.09;5049054;28;20064;-62
2023/10/06 10:04:16;;;;;;;20.27;8.10;;;;;;;19.32;58.31;102129.59;5053372;28;20045;-62
2023/10/06 10:06:44;;;;;;;15.90;8.13;;;;;;;19.56;57.19;102118.56;5054317;28;20053;-62
2023/10/06 10:09:15;;;;;;;23.10;7.80;;;;;;;19.74;56.11;102129.25;5047184;28;20060;-62
2023/10/06 10:12:13;;;;;;;28.27;8.32;;;;;;;19.93;55.54;102132.38;5045807;28;20725;-62
2023/10/06 10:14:50;;;;;;;26.67;8.13;;;;;;;20.05;54.78;102137.22;5030097;28;20467;-63
2023/10/06 10:17:46;;;;;;;29.83;9.40;;;;;;;20.09;53.22;102127.81;5053891;28;20114;-62
2023/10/06 10:20:15;;;;;;;20.63;7.28;;;;;;;20.22;53.43;102122.28;5052296;28;20053;-62
2023/10/06 10:22:43;;;;;;;18.30;7.53;;;;;;;20.17;53.23;102116.91;5047349;28;20522;-63
2023/10/06 10:25:13;;;;;;;17.95;6.90;;;;;;;19.81;51.02;102125.91;5051527;28;20556;-62
2023/10/06 10:27:43;;;;;;;16.58;7.18;;;;;;;20.01;52.62;102114.69;5055077;28;20111;-62
2023/10/06 10:30:14;;;;;;;16.17;7.00;;;;;;;20.15;52.50;102114.44;5050934;28;20060;-63
2023/10/06 10:32:42;;;;;;;17.88;7.63;;;;;;;20.10;52.05;102117.44;5053766;28;20048;-62
2023/10/06 10:35:14;;;;;;;19.77;7.32;;;;;;;20.25;51.18;102111.22;5048978;28;20092;-61
2023/10/06 10:38:06;;;;;;;14.80;6.80;;;;;;;20.26;51.26;102114.84;5050952;28;20383;-63
2023/10/06 10:40:48;;;;;;;16.88;7.95;;;;;;;20.36;50.04;102109.63;5057414;28;20049;-62
2023/10/06 10:43:15;;;;;;;18.15;7.90;;;;;;;20.37;51.54;102108.47;5044529;28;20053;-62
2023/10/06 10:45:47;;;;;;;18.00;6.15;;;;;;;20.12;52.65;102101.09;5052339;28;20684;-62
2023/10/06 10:48:15;;;;;;;24.45;6.78;;;;;;;20.13;51.73;102091.56;5031182;28;20037;-64
2023/10/06 10:50:52;;;;;;;23.00;9.68;;;;;;;20.01;51.82;102088.72;5033725;28;20045;-63
2023/10/06 10:53:20;;;;;;;24.95;11.38;;;;;;;20.27;52.18;102091.28;5049577;28;20045;-64
2023/10/06 10:55:49;;;;;;;28.15;12.40;;;;;;;20.47;51.53;102076.41;5031920;28;20056;-62
2023/10/06 10:58:42;;;;;;;20.63;10.18;;;;;;;20.61;51.36;102077.72;5049883;28;20037;-63
2023/10/06 11:01:32;;;;;;;21.02;9.35;;;;;;;20.63;51.42;102068.97;5048202;28;20049;-62
2023/10/06 11:04:12;;;;;;;;;;;;;;;20.66;51.28;102069.06;5049139;28;20341;-63
2023/10/06 11:06:40;;;;;;;18.08;9.10;;;;;;;19.68;51.32;102068.31;5052443;28;19925;-64
2023/10/06 11:09:12;;;;;;;15.15;7.97;;;;;;;20.00;51.53;102068.31;5052813;28;20521;-63
2023/10/06 11:11:39;;;;;;;16.45;6.85;;;;;;;20.50;51.06;102065.34;5052027;28;20060;-63
2023/10/06 11:14:07;;;;;;;16.85;7.60;;;;;;;20.59;50.52;102068.03;5053085;28;20063;-62
2023/10/06 11:16:35;;;;;;;18.00;7.05;;;;;;;20.74;50.48;102073.78;5049593;28;20056;-62
2023/10/06 11:19:05;;;;;;;18.73;8.00;;;;;;;20.84;49.99;102073.28;5052102;28;20045;-63
2023/10/06 11:21:32;;;;;;;;;;;;;;;20.66;50.64;102073.88;5047554;28;20057;-66
2023/10/06 11:23:59;;;;;;;16.10;8.30;;;;;;;20.77;50.39;102069.44;5053730;28;19935;-63
2023/10/06 11:26:28;;;;;;;18.75;9.13;;;;;;;20.56;49.58;102066.75;5048892;28;20049;-63
2023/10/06 11:28:55;;;;;;;17.95;7.90;;;;;;;20.70;50.40;102060.78;5030206;28;20396;-64
2023/10/06 11:31:23;;;;;;;18.52;9.20;;;;;;;20.50;50.43;102054.16;5031494;28;20060;-64
2023/10/06 11:33:50;;;;;;;16.92;7.47;;;;;;;20.86;48.98;102056.13;5049441;28;20045;-63
2023/10/06 11:36:17;;;;;;;15.65;6.20;;;;;;;21.14;48.79;102052.31;5052286;28;20052;-62
2023/10/06 11:38:45;;;;;;;16.00;7.05;;;;;;;20.76;48.52;102049.03;5052878;28;20063;-62
2023/10/06 11:41:21;;;;;;;17.08;6.55;;;;;;;20.73;49.79;102052.50;5033486;28;20057;-62